CSCL Fuzhou — ELYA7 — position and weather

sailwx.info

Track history (hours):
 
Tides and Currents Weather Stations Pressure Air Temp Water Temp Dewpoint Dewpoint Depression Visibility Wind Speed Wind Dir Waves Ship Positions

CSCL Fuzhou

Last reported at 2018-Feb-21 18:19 UTC. Time now 2018-Feb-24 07:50 UTC.
Position N 01°13' E 103°57'.

Length 207.4 m; beam 29.8 m; draft 11.4 m.

Type: Ship (hazmat cat A). MMSI: 636016483.

Date/timePositionNaut miles runAvg speedWind from/ knotsBaromVisibWave heightAir tempDewpointWater temp
2018-Feb-21 18:19N 01°13' E 103°57'617.8
2018-Feb-21 18:00N 01°11' E 103°51'916.9
2018-Feb-21 17:30N 01°06' E 103°44'815.5
2018-Feb-21 16:59N 01°04' E 103°37'815.8
2018-Feb-21 16:30N 01°11' E 103°32'5 9.7
2018-Feb-21 16:00N 01°15' E 103°32'611.5
2018-Feb-21 15:30N 01°21' E 103°33'1 1.8
2018-Feb-21 14:59N 01°22' E 103°33'0 0.0
2018-Feb-21 14:28N 01°22' E 103°33'0 0.0
2018-Feb-21 13:07N 01°22' E 103°33'0 0.0
2018-Feb-21 12:55N 01°22' E 103°33'0 0.0
2018-Feb-21 12:28N 01°22' E 103°33'0 0.0
2018-Feb-21 11:07N 01°22' E 103°33'0 0.0
2018-Feb-21 10:55N 01°22' E 103°33'0 0.0
2018-Feb-21 10:28N 01°22' E 103°33'0 0.0
2018-Feb-21 09:55N 01°22' E 103°33'0 0.0
2018-Feb-21 09:19N 01°22' E 103°33'0 0.0
2018-Feb-21 08:40N 01°22' E 103°33'0 0.0
2018-Feb-21 08:07N 01°22' E 103°33'0 0.0
2018-Feb-21 07:43N 01°22' E 103°33'0 0.0
2018-Feb-21 07:28N 01°22' E 103°33'0 0.0
2018-Feb-21 06:58N 01°22' E 103°33'0 0.0
2018-Feb-21 06:28N 01°22' E 103°33'0 0.0
2018-Feb-21 05:55N 01°22' E 103°33'0 0.0
2018-Feb-21 04:43N 01°22' E 103°33'0 0.0
2018-Feb-21 04:25N 01°22' E 103°33'0 0.0
2018-Feb-21 03:58N 01°22' E 103°33'0 0.0
2018-Feb-21 03:01N 01°22' E 103°33'0 0.0
2018-Feb-21 02:52N 01°22' E 103°33'0 0.0
2018-Feb-21 02:22N 01°22' E 103°33'0 0.0
2018-Feb-21 01:55N 01°22' E 103°33'0 0.0
2018-Feb-21 01:16N 01°22' E 103°33'0 0.0
2018-Feb-21 00:57N 01°22' E 103°33'1 3.1
2018-Feb-21 00:29N 01°21' E 103°33'510.2
2018-Feb-21 00:00N 01°16' E 103°33'1 2.0
2018-Feb-20 23:29N 01°15' E 103°32'0 0.5
2018-Feb-20 22:59N 01°15' E 103°32'1 1.4
2018-Feb-20 22:30N 01°14' E 103°32'2 3.1
2018-Feb-20 22:00N 01°13' E 103°31'1 1.8
2018-Feb-20 21:30N 01°13' E 103°32'3 6.9
2018-Feb-20 21:00N 01°11' E 103°29'5 9.3
2018-Feb-20 20:27N 01°13' E 103°24'610.5
2018-Feb-20 19:54N 01°16' E 103°20'2012.5
2018-Feb-20 18:20N 01°28' E 103°04'27715.3
2018-Feb-20 00:13N 05°03' E 100°08'315.7
2018-Feb-20 00:00N 05°06' E 100°07'815.9
2018-Feb-19 23:30N 05°13' E 100°05'816.3
2018-Feb-19 23:01N 05°21' E 100°04'1116.3
2018-Feb-19 22:19N 05°33' E 100°05'1411.9
2018-Feb-19 21:08N 05°31' E 100°19'111.1
2018-Feb-19 21:00N 05°29' E 100°20'4 8.1
2018-Feb-19 20:30N 05°26' E 100°21'0 0.7
2018-Feb-19 20:00N 05°25' E 100°22'0 0.0
2018-Feb-19 19:30N 05°25' E 100°22'0 0.0
2018-Feb-19 19:00N 05°25' E 100°22'0 0.0
2018-Feb-19 18:30N 05°25' E 100°22'0 0.0
2018-Feb-19 18:00N 05°25' E 100°22'0 0.0
2018-Feb-19 17:30N 05°25' E 100°22'0 0.0
2018-Feb-19 17:00N 05°25' E 100°22'0 0.0
2018-Feb-19 16:30N 05°25' E 100°22'0 0.0
2018-Feb-19 16:00N 05°25' E 100°22'0 0.0
2018-Feb-19 15:30N 05°25' E 100°22'0 0.0
2018-Feb-19 14:54N 05°25' E 100°22'0 0.0
2018-Feb-19 12:00N 05°25' E 100°22'0 0.0
2018-Feb-19 11:30N 05°25' E 100°22'0 0.0
2018-Feb-19 11:00N 05°25' E 100°22'0 0.0
2018-Feb-19 09:48N 05°25' E 100°22'0 0.0
2018-Feb-19 09:30N 05°25' E 100°22'0 0.0
2018-Feb-19 09:00N 05°25' E 100°22'0 0.0
2018-Feb-19 08:24N 05°25' E 100°22'0 0.0
2018-Feb-19 08:00N 05°25' E 100°22'0 0.0
2018-Feb-19 07:30N 05°25' E 100°22'0 0.0
2018-Feb-19 07:00N 05°25' E 100°22'0 0.0
2018-Feb-19 06:30N 05°25' E 100°22'0 0.0
2018-Feb-19 06:00N 05°25' E 100°22'0 0.0
2018-Feb-19 05:30N 05°25' E 100°22'0 0.0
2018-Feb-19 05:00N 05°25' E 100°22'0 0.0
2018-Feb-19 04:30N 05°25' E 100°22'0 0.0
2018-Feb-19 04:00N 05°25' E 100°22'0 0.0
2018-Feb-19 03:30N 05°25' E 100°22'0 0.0
2018-Feb-19 03:00N 05°25' E 100°22'0 0.0
2018-Feb-19 02:30N 05°25' E 100°22'0 0.0
2018-Feb-19 01:54N 05°25' E 100°22'0 0.0
2018-Feb-19 01:30N 05°25' E 100°22'0 0.0
2018-Feb-19 01:00N 05°25' E 100°22'0 0.0
2018-Feb-19 00:30N 05°25' E 100°22'0 0.0
2018-Feb-19 00:00N 05°25' E 100°22'0 0.1
2018-Feb-18 23:30N 05°25' E 100°22'0 0.1
2018-Feb-18 23:00N 05°25' E 100°22'3 6.6
2018-Feb-18 22:30N 05°28' E 100°20'5 9.6
2018-Feb-18 22:01N 05°32' E 100°17'914.1
2018-Feb-18 21:24N 05°36' E 100°09'4 9.5
2018-Feb-18 21:00N 05°35' E 100°06'610.5
2018-Feb-18 20:25N 05°30' E 100°04'614.4
2018-Feb-18 20:00N 05°24' E 100°04'914.6
2018-Feb-18 19:25N 05°15' E 100°05'313 8.2
2018-Feb-17 05:24N 01°14' E 103°25'614.7
2018-Feb-17 04:59N 01°12' E 103°31'715.3
2018-Feb-17 04:30N 01°11' E 103°38'814.6
2018-Feb-17 03:59N 01°09' E 103°45'816.6
2018-Feb-17 03:29N 01°13' E 103°52'4 7.2
2018-Feb-17 02:59N 01°16' E 103°51'0 0.0
2018-Feb-17 02:28N 01°16' E 103°51'0 0.0
2018-Feb-17 01:58N 01°16' E 103°51'0 0.0
2018-Feb-17 01:28N 01°16' E 103°51'0 0.0
2018-Feb-17 00:52N 01°16' E 103°51'0 0.0
2018-Feb-17 00:28N 01°16' E 103°51'0 0.0
2018-Feb-16 23:58N 01°16' E 103°51'0 0.0
2018-Feb-16 23:28N 01°16' E 103°51'0 0.0
2018-Feb-16 22:58N 01°16' E 103°51'0 0.0
2018-Feb-16 22:28N 01°16' E 103°51'0 0.0
2018-Feb-16 21:52N 01°16' E 103°51'0 0.0
2018-Feb-16 21:28N 01°16' E 103°51'0 0.0
2018-Feb-16 20:58N 01°16' E 103°51'0 0.0
2018-Feb-16 20:28N 01°16' E 103°51'0 0.0
2018-Feb-16 19:58N 01°16' E 103°51'0 0.0
2018-Feb-16 19:28N 01°16' E 103°51'0 0.0
2018-Feb-16 18:58N 01°16' E 103°51'0 0.0
2018-Feb-16 18:28N 01°16' E 103°51'0 0.0
2018-Feb-16 17:53N 01°16' E 103°51'0 0.0
2018-Feb-16 17:28N 01°16' E 103°51'0 0.0
2018-Feb-16 16:58N 01°16' E 103°51'0 0.0
2018-Feb-16 16:22N 01°16' E 103°51'0 0.0
2018-Feb-16 15:58N 01°16' E 103°51'0 0.0
2018-Feb-16 15:28N 01°16' E 103°51'0 0.0
2018-Feb-16 15:01N 01°16' E 103°51'0 0.7
2018-Feb-16 14:31N 01°16' E 103°51'2 3.1
2018-Feb-16 14:01N 01°15' E 103°52'2 4.2
2018-Feb-16 13:31N 01°14' E 103°54'4 7.1
2018-Feb-16 13:00N 01°15' E 103°57'5 9.6
2018-Feb-16 12:28N 01°16' E 104°02'  
2018-Feb-12 19:47N 22°22' E 120°01'518.5
2018-Feb-12 19:31N 22°26' E 120°05'918.6
2018-Feb-12 19:01N 22°32' E 120°12'612.9
2018-Feb-12 18:31N 22°33' E 120°19'0 0.4
2018-Feb-12 18:00N 22°33' E 120°19'0 0.0
2018-Feb-12 17:30N 22°33' E 120°19'0 0.0
2018-Feb-12 17:00N 22°33' E 120°19'0 0.0
2018-Feb-12 16:30N 22°33' E 120°19'0 0.0
2018-Feb-12 16:00N 22°33' E 120°19'0 0.0
2018-Feb-12 15:30N 22°33' E 120°19'0 0.0
2018-Feb-12 15:00N 22°33' E 120°19'0 0.0
2018-Feb-12 14:30N 22°33' E 120°19'0 0.0
2018-Feb-12 14:00N 22°33' E 120°19'0 0.0
2018-Feb-12 13:30N 22°33' E 120°19'0 0.0
2018-Feb-12 13:00N 22°33' E 120°19'0 0.0
2018-Feb-12 12:27N 22°33' E 120°19'0 0.0
2018-Feb-12 12:00N 22°33' E 120°19'0 0.0
2018-Feb-12 11:30N 22°33' E 120°19'0 0.0
2018-Feb-12 11:00N 22°33' E 120°19'0 0.0
2018-Feb-12 10:27N 22°33' E 120°19'0 0.0
2018-Feb-12 10:00N 22°33' E 120°19'0 0.0
2018-Feb-12 09:30N 22°33' E 120°19'0 0.0
2018-Feb-12 09:00N 22°33' E 120°19'0 0.0
2018-Feb-12 08:30N 22°33' E 120°19'0 0.0
2018-Feb-12 08:00N 22°33' E 120°19'0 0.0
2018-Feb-12 07:30N 22°33' E 120°19'0 0.0
2018-Feb-12 07:00N 22°33' E 120°19'0 0.0
2018-Feb-12 06:30N 22°33' E 120°19'0 0.0
2018-Feb-12 06:00N 22°33' E 120°19'0 0.0
2018-Feb-12 05:30N 22°33' E 120°19'0 0.2
2018-Feb-12 05:00N 22°33' E 120°19'3 6.9
2018-Feb-12 04:30N 22°33' E 120°15'2 3.7
2018-Feb-12 04:00N 22°32' E 120°14'916.9
2018-Feb-12 03:30N 22°39' E 120°09'918.2
2018-Feb-12 03:00N 22°47' E 120°04'919.2
2018-Feb-12 02:30N 22°55' E 119°59'1019.8
2018-Feb-12 02:00N 23°04' E 119°54'1719.7
2018-Feb-12 01:09N 23°21' E 119°53'319.2
2018-Feb-12 01:00N 23°24' E 119°53'918.8
2018-Feb-12 00:30N 23°33' E 119°54'  
Track history (hours):
 
Tides and Currents Weather Stations Pressure Air Temp Water Temp Dewpoint Dewpoint Depression Visibility Wind Speed Wind Dir Waves Ship Positions

CSCL Fuzhou

Last reported at 2018-Feb-21 18:19 UTC. Time now 2018-Feb-24 07:50 UTC.
Position N 01°13' E 103°57'.

Length 207.4 m; beam 29.8 m; draft 11.4 m.

Type: Ship (hazmat cat A). MMSI: 636016483.

Date/timePositionNaut miles runAvg speedWind from/ knotsBaromVisibWave heightAir tempDewpointWater temp
2018-Feb-21 18:19N 01°13' E 103°57'617.8
2018-Feb-21 18:00N 01°11' E 103°51'916.9
2018-Feb-21 17:30N 01°06' E 103°44'815.5
2018-Feb-21 16:59N 01°04' E 103°37'815.8
2018-Feb-21 16:30N 01°11' E 103°32'5 9.7
2018-Feb-21 16:00N 01°15' E 103°32'611.5
2018-Feb-21 15:30N 01°21' E 103°33'1 1.8
2018-Feb-21 14:59N 01°22' E 103°33'0 0.0
2018-Feb-21 14:28N 01°22' E 103°33'0 0.0
2018-Feb-21 13:07N 01°22' E 103°33'0 0.0
2018-Feb-21 12:55N 01°22' E 103°33'0 0.0
2018-Feb-21 12:28N 01°22' E 103°33'0 0.0
2018-Feb-21 11:07N 01°22' E 103°33'0 0.0
2018-Feb-21 10:55N 01°22' E 103°33'0 0.0
2018-Feb-21 10:28N 01°22' E 103°33'0 0.0
2018-Feb-21 09:55N 01°22' E 103°33'0 0.0
2018-Feb-21 09:19N 01°22' E 103°33'0 0.0
2018-Feb-21 08:40N 01°22' E 103°33'0 0.0
2018-Feb-21 08:07N 01°22' E 103°33'0 0.0
2018-Feb-21 07:43N 01°22' E 103°33'0 0.0
2018-Feb-21 07:28N 01°22' E 103°33'0 0.0
2018-Feb-21 06:58N 01°22' E 103°33'0 0.0
2018-Feb-21 06:28N 01°22' E 103°33'0 0.0
2018-Feb-21 05:55N 01°22' E 103°33'0 0.0
2018-Feb-21 04:43N 01°22' E 103°33'0 0.0
2018-Feb-21 04:25N 01°22' E 103°33'0 0.0
2018-Feb-21 03:58N 01°22' E 103°33'0 0.0
2018-Feb-21 03:01N 01°22' E 103°33'0 0.0
2018-Feb-21 02:52N 01°22' E 103°33'0 0.0
2018-Feb-21 02:22N 01°22' E 103°33'0 0.0
2018-Feb-21 01:55N 01°22' E 103°33'0 0.0
2018-Feb-21 01:16N 01°22' E 103°33'0 0.0
2018-Feb-21 00:57N 01°22' E 103°33'1 3.1
2018-Feb-21 00:29N 01°21' E 103°33'510.2
2018-Feb-21 00:00N 01°16' E 103°33'1 2.0
2018-Feb-20 23:29N 01°15' E 103°32'0 0.5
2018-Feb-20 22:59N 01°15' E 103°32'1 1.4
2018-Feb-20 22:30N 01°14' E 103°32'2 3.1
2018-Feb-20 22:00N 01°13' E 103°31'1 1.8
2018-Feb-20 21:30N 01°13' E 103°32'3 6.9
2018-Feb-20 21:00N 01°11' E 103°29'5 9.3
2018-Feb-20 20:27N 01°13' E 103°24'610.5
2018-Feb-20 19:54N 01°16' E 103°20'2012.5
2018-Feb-20 18:20N 01°28' E 103°04'27715.3
2018-Feb-20 00:13N 05°03' E 100°08'315.7
2018-Feb-20 00:00N 05°06' E 100°07'815.9
2018-Feb-19 23:30N 05°13' E 100°05'816.3
2018-Feb-19 23:01N 05°21' E 100°04'1116.3
2018-Feb-19 22:19N 05°33' E 100°05'1411.9
2018-Feb-19 21:08N 05°31' E 100°19'111.1
2018-Feb-19 21:00N 05°29' E 100°20'4 8.1
2018-Feb-19 20:30N 05°26' E 100°21'0 0.7
2018-Feb-19 20:00N 05°25' E 100°22'0 0.0
2018-Feb-19 19:30N 05°25' E 100°22'0 0.0
2018-Feb-19 19:00N 05°25' E 100°22'0 0.0
2018-Feb-19 18:30N 05°25' E 100°22'0 0.0
2018-Feb-19 18:00N 05°25' E 100°22'0 0.0
2018-Feb-19 17:30N 05°25' E 100°22'0 0.0
2018-Feb-19 17:00N 05°25' E 100°22'0 0.0
2018-Feb-19 16:30N 05°25' E 100°22'0 0.0
2018-Feb-19 16:00N 05°25' E 100°22'0 0.0
2018-Feb-19 15:30N 05°25' E 100°22'0 0.0
2018-Feb-19 14:54N 05°25' E 100°22'0 0.0
2018-Feb-19 12:00N 05°25' E 100°22'0 0.0
2018-Feb-19 11:30N 05°25' E 100°22'0 0.0
2018-Feb-19 11:00N 05°25' E 100°22'0 0.0
2018-Feb-19 09:48N 05°25' E 100°22'0 0.0
2018-Feb-19 09:30N 05°25' E 100°22'0 0.0
2018-Feb-19 09:00N 05°25' E 100°22'0 0.0
2018-Feb-19 08:24N 05°25' E 100°22'0 0.0
2018-Feb-19 08:00N 05°25' E 100°22'0 0.0
2018-Feb-19 07:30N 05°25' E 100°22'0 0.0
2018-Feb-19 07:00N 05°25' E 100°22'0 0.0
2018-Feb-19 06:30N 05°25' E 100°22'0 0.0
2018-Feb-19 06:00N 05°25' E 100°22'0 0.0
2018-Feb-19 05:30N 05°25' E 100°22'0 0.0
2018-Feb-19 05:00N 05°25' E 100°22'0 0.0
2018-Feb-19 04:30N 05°25' E 100°22'0 0.0
2018-Feb-19 04:00N 05°25' E 100°22'0 0.0
2018-Feb-19 03:30N 05°25' E 100°22'0 0.0
2018-Feb-19 03:00N 05°25' E 100°22'0 0.0
2018-Feb-19 02:30N 05°25' E 100°22'0 0.0
2018-Feb-19 01:54N 05°25' E 100°22'0 0.0
2018-Feb-19 01:30N 05°25' E 100°22'0 0.0
2018-Feb-19 01:00N 05°25' E 100°22'0 0.0
2018-Feb-19 00:30N 05°25' E 100°22'0 0.0
2018-Feb-19 00:00N 05°25' E 100°22'0 0.1
2018-Feb-18 23:30N 05°25' E 100°22'0 0.1
2018-Feb-18 23:00N 05°25' E 100°22'3 6.6
2018-Feb-18 22:30N 05°28' E 100°20'5 9.6
2018-Feb-18 22:01N 05°32' E 100°17'914.1
2018-Feb-18 21:24N 05°36' E 100°09'4 9.5
2018-Feb-18 21:00N 05°35' E 100°06'610.5
2018-Feb-18 20:25N 05°30' E 100°04'614.4
2018-Feb-18 20:00N 05°24' E 100°04'914.6
2018-Feb-18 19:25N 05°15' E 100°05'313 8.2
2018-Feb-17 05:24N 01°14' E 103°25'614.7
2018-Feb-17 04:59N 01°12' E 103°31'715.3
2018-Feb-17 04:30N 01°11' E 103°38'814.6
2018-Feb-17 03:59N 01°09' E 103°45'816.6
2018-Feb-17 03:29N 01°13' E 103°52'4 7.2
2018-Feb-17 02:59N 01°16' E 103°51'0 0.0
2018-Feb-17 02:28N 01°16' E 103°51'0 0.0
2018-Feb-17 01:58N 01°16' E 103°51'0 0.0
2018-Feb-17 01:28N 01°16' E 103°51'0 0.0
2018-Feb-17 00:52N 01°16' E 103°51'0 0.0
2018-Feb-17 00:28N 01°16' E 103°51'0 0.0
2018-Feb-16 23:58N 01°16' E 103°51'0 0.0
2018-Feb-16 23:28N 01°16' E 103°51'0 0.0
2018-Feb-16 22:58N 01°16' E 103°51'0 0.0
2018-Feb-16 22:28N 01°16' E 103°51'0 0.0
2018-Feb-16 21:52N 01°16' E 103°51'0 0.0
2018-Feb-16 21:28N 01°16' E 103°51'0 0.0
2018-Feb-16 20:58N 01°16' E 103°51'0 0.0
2018-Feb-16 20:28N 01°16' E 103°51'0 0.0
2018-Feb-16 19:58N 01°16' E 103°51'0 0.0
2018-Feb-16 19:28N 01°16' E 103°51'0 0.0
2018-Feb-16 18:58N 01°16' E 103°51'0 0.0
2018-Feb-16 18:28N 01°16' E 103°51'0 0.0
2018-Feb-16 17:53N 01°16' E 103°51'0 0.0
2018-Feb-16 17:28N 01°16' E 103°51'0 0.0
2018-Feb-16 16:58N 01°16' E 103°51'0 0.0
2018-Feb-16 16:22N 01°16' E 103°51'0 0.0
2018-Feb-16 15:58N 01°16' E 103°51'0 0.0
2018-Feb-16 15:28N 01°16' E 103°51'0 0.0
2018-Feb-16 15:01N 01°16' E 103°51'0 0.7
2018-Feb-16 14:31N 01°16' E 103°51'2 3.1
2018-Feb-16 14:01N 01°15' E 103°52'2 4.2
2018-Feb-16 13:31N 01°14' E 103°54'4 7.1
2018-Feb-16 13:00N 01°15' E 103°57'5 9.6
2018-Feb-16 12:28N 01°16' E 104°02'  
2018-Feb-12 19:47N 22°22' E 120°01'518.5
2018-Feb-12 19:31N 22°26' E 120°05'918.6
2018-Feb-12 19:01N 22°32' E 120°12'612.9
2018-Feb-12 18:31N 22°33' E 120°19'0 0.4
2018-Feb-12 18:00N 22°33' E 120°19'0 0.0
2018-Feb-12 17:30N 22°33' E 120°19'0 0.0
2018-Feb-12 17:00N 22°33' E 120°19'0 0.0
2018-Feb-12 16:30N 22°33' E 120°19'0 0.0
2018-Feb-12 16:00N 22°33' E 120°19'0 0.0
2018-Feb-12 15:30N 22°33' E 120°19'0 0.0
2018-Feb-12 15:00N 22°33' E 120°19'0 0.0
2018-Feb-12 14:30N 22°33' E 120°19'0 0.0
2018-Feb-12 14:00N 22°33' E 120°19'0 0.0
2018-Feb-12 13:30N 22°33' E 120°19'0 0.0
2018-Feb-12 13:00N 22°33' E 120°19'0 0.0
2018-Feb-12 12:27N 22°33' E 120°19'0 0.0
2018-Feb-12 12:00N 22°33' E 120°19'0 0.0
2018-Feb-12 11:30N 22°33' E 120°19'0 0.0
2018-Feb-12 11:00N 22°33' E 120°19'0 0.0
2018-Feb-12 10:27N 22°33' E 120°19'0 0.0
2018-Feb-12 10:00N 22°33' E 120°19'0 0.0
2018-Feb-12 09:30N 22°33' E 120°19'0 0.0
2018-Feb-12 09:00N 22°33' E 120°19'0 0.0
2018-Feb-12 08:30N 22°33' E 120°19'0 0.0
2018-Feb-12 08:00N 22°33' E 120°19'0 0.0
2018-Feb-12 07:30N 22°33' E 120°19'0 0.0
2018-Feb-12 07:00N 22°33' E 120°19'0 0.0
2018-Feb-12 06:30N 22°33' E 120°19'0 0.0
2018-Feb-12 06:00N 22°33' E 120°19'0 0.0
2018-Feb-12 05:30N 22°33' E 120°19'0 0.2
2018-Feb-12 05:00N 22°33' E 120°19'3 6.9
2018-Feb-12 04:30N 22°33' E 120°15'2 3.7
2018-Feb-12 04:00N 22°32' E 120°14'916.9
2018-Feb-12 03:30N 22°39' E 120°09'918.2
2018-Feb-12 03:00N 22°47' E 120°04'919.2
2018-Feb-12 02:30N 22°55' E 119°59'1019.8
2018-Feb-12 02:00N 23°04' E 119°54'1719.7
2018-Feb-12 01:09N 23°21' E 119°53'319.2
2018-Feb-12 01:00N 23°24' E 119°53'918.8
2018-Feb-12 00:30N 23°33' E 119°54'  

Dump ship's entire track history